createdAt,value
2019-06-08T00:03:38.635Z,15.20
2019-06-08T00:08:44.233Z,15.10
2019-06-08T00:13:49.904Z,14.90
2019-06-08T00:18:55.469Z,14.90
2019-06-08T00:24:01.244Z,14.90
2019-06-08T00:29:06.775Z,14.80
2019-06-08T00:34:12.342Z,14.60
2019-06-08T00:39:18.858Z,14.60
2019-06-08T00:44:25.645Z,14.50
2019-06-08T00:49:31.411Z,14.50
2019-06-08T00:54:37.072Z,14.40
2019-06-08T00:59:42.762Z,14.30
2019-06-08T01:04:48.406Z,14.30
2019-06-08T01:09:53.993Z,14.40
2019-06-08T01:14:59.630Z,14.30
2019-06-08T01:20:06.077Z,14.30
2019-06-08T01:25:11.841Z,14.30
2019-06-08T01:30:17.998Z,14.30
2019-06-08T01:35:24.821Z,14.20
2019-06-08T01:40:31.523Z,14.20
2019-06-08T01:45:37.124Z,14.20
2019-06-08T01:50:42.678Z,14.20
2019-06-08T01:55:48.246Z,14.20
2019-06-08T02:00:54.037Z,14.10
2019-06-08T02:05:59.620Z,14.00
2019-06-08T02:11:05.769Z,14.00
2019-06-08T02:16:11.450Z,14.00
2019-06-08T02:21:17.003Z,13.90
2019-06-08T02:26:22.554Z,13.90
2019-06-08T02:31:28.117Z,13.80
2019-06-08T02:36:35.399Z,13.80
2019-06-08T02:41:41.043Z,13.70
2019-06-08T02:46:46.723Z,13.60
2019-06-08T02:51:52.583Z,13.50
2019-06-08T02:57:00.135Z,13.40
2019-06-08T03:02:05.904Z,13.30
2019-06-08T03:07:13.242Z,13.40
2019-06-08T03:12:20.754Z,13.30
2019-06-08T03:17:26.453Z,13.30
2019-06-08T03:22:32.532Z,13.30
2019-06-08T03:27:40.640Z,13.30
2019-06-08T03:32:55.092Z,13.20
2019-06-08T03:37:53.792Z,13.20
2019-06-08T03:43:01.417Z,13.10
2019-06-08T03:48:06.640Z,13.10
2019-06-08T03:53:12.178Z,13.00
2019-06-08T03:58:17.778Z,13.00
2019-06-08T04:03:23.342Z,12.90
2019-06-08T04:08:28.862Z,12.90
2019-06-08T04:13:34.439Z,12.90
2019-06-08T04:18:40.698Z,13.00
2019-06-08T04:23:47.388Z,13.00
2019-06-08T04:28:53.190Z,13.00
2019-06-08T04:33:58.761Z,13.10
2019-06-08T04:39:05.889Z,13.10
2019-06-08T04:44:11.488Z,13.20
2019-06-08T04:49:17.015Z,13.20
2019-06-08T04:54:22.580Z,13.10
2019-06-08T04:59:28.336Z,13.10
2019-06-08T05:04:33.910Z,13.10
2019-06-08T05:09:40.985Z,13.20
2019-06-08T05:14:47.290Z,13.20
2019-06-08T05:19:52.953Z,13.20
2019-06-08T05:24:58.536Z,13.30
2019-06-08T05:30:08.487Z,13.30
2019-06-08T05:35:11.665Z,13.20
2019-06-08T05:40:17.534Z,13.20
2019-06-08T05:45:23.114Z,13.10
2019-06-08T05:50:28.754Z,13.10
2019-06-08T05:55:34.338Z,13.00
2019-06-08T06:00:40.112Z,13.00
2019-06-08T06:05:46.523Z,13.00
2019-06-08T06:10:52.270Z,13.10
2019-06-08T06:15:57.771Z,13.10
2019-06-08T06:21:11.007Z,13.10
2019-06-08T06:26:10.791Z,13.00
2019-06-08T06:31:16.373Z,13.00
2019-06-08T06:36:22.144Z,12.90
2019-06-08T06:41:27.813Z,13.00
2019-06-08T06:46:33.861Z,13.00
2019-06-08T06:51:39.423Z,13.00
2019-06-08T06:56:45.296Z,13.00
2019-06-08T07:01:54.174Z,13.00
2019-06-08T07:06:59.118Z,13.10
2019-06-08T07:12:04.735Z,13.20
2019-06-08T07:17:10.264Z,13.20
2019-06-08T07:22:16.042Z,13.30
2019-06-08T07:27:21.606Z,13.30
2019-06-08T07:32:27.162Z,13.40
2019-06-08T07:37:32.965Z,13.50
2019-06-08T07:42:38.507Z,13.50
2019-06-08T07:47:44.154Z,13.70
2019-06-08T07:52:51.254Z,13.70
2019-06-08T07:57:57.818Z,13.70
2019-06-08T08:03:03.423Z,13.70
2019-06-08T08:08:09.006Z,13.70
2019-06-08T08:13:14.592Z,13.80
2019-06-08T08:18:20.319Z,14.00
2019-06-08T08:23:27.438Z,14.20
2019-06-08T08:28:33.212Z,14.30
2019-06-08T08:33:38.833Z,14.40
2019-06-08T08:38:44.339Z,14.50
2019-06-08T08:43:51.265Z,14.50
2019-06-08T08:49:06.923Z,14.60
2019-06-08T08:54:05.441Z,14.70
2019-06-08T08:59:11.709Z,14.90
2019-06-08T09:04:18.502Z,15.00
2019-06-08T09:09:24.475Z,15.00
2019-06-08T09:14:30.122Z,14.90
2019-06-08T09:19:37.997Z,14.90
2019-06-08T09:24:43.114Z,15.20
2019-06-08T09:29:48.813Z,15.50
2019-06-08T09:34:54.723Z,15.60
2019-06-08T09:40:03.388Z,15.90
2019-06-08T09:45:09.540Z,15.90
2019-06-08T09:50:18.535Z,15.70
2019-06-08T09:55:23.454Z,15.60
2019-06-08T10:00:30.084Z,15.50
2019-06-08T10:05:35.729Z,15.50
2019-06-08T10:10:41.533Z,15.60
2019-06-08T10:15:48.739Z,15.60
2019-06-08T10:20:54.778Z,15.50
2019-06-08T10:26:02.633Z,15.30
2019-06-08T10:31:07.831Z,15.30
2019-06-08T10:36:13.437Z,15.40
2019-06-08T10:41:21.818Z,15.50
2019-06-08T10:46:26.526Z,15.70
2019-06-08T10:51:32.240Z,15.90
2019-06-08T10:56:38.521Z,16.00
2019-06-08T11:01:44.490Z,16.20
2019-06-08T11:06:50.103Z,16.40
2019-06-08T11:11:57.955Z,16.50
2019-06-08T11:17:04.904Z,16.60
2019-06-08T11:22:14.245Z,16.70
2019-06-08T11:27:18.732Z,16.80
2019-06-08T11:32:24.645Z,17.10
2019-06-08T11:37:30.357Z,17.30
2019-06-08T11:42:38.645Z,17.50
2019-06-08T11:47:43.663Z,17.60
2019-06-08T11:52:49.355Z,17.50
2019-06-08T11:57:55.730Z,17.30
2019-06-08T12:03:02.240Z,17.10
2019-06-08T12:08:08.429Z,16.90
2019-06-08T12:13:14.364Z,16.70
2019-06-08T12:18:20.505Z,16.50
2019-06-08T12:23:26.278Z,16.20
2019-06-08T12:28:34.957Z,16.30
2019-06-08T12:33:40.578Z,16.60
2019-06-08T12:38:48.549Z,16.50
2019-06-08T12:43:53.396Z,16.20
2019-06-08T12:48:59.117Z,16.00
2019-06-08T12:54:04.900Z,16.30
2019-06-08T12:59:13.818Z,16.70
2019-06-08T13:04:21.321Z,17.10
2019-06-08T13:09:25.059Z,17.30
2019-06-08T13:14:30.765Z,17.30
2019-06-08T13:19:38.467Z,17.40
2019-06-08T13:24:43.571Z,17.50
2019-06-08T13:29:49.234Z,17.40
2019-06-08T13:34:58.059Z,17.60
2019-06-08T13:40:02.386Z,17.70
2019-06-08T13:45:08.805Z,17.80
2019-06-08T13:50:14.666Z,17.90
2019-06-08T13:55:36.644Z,18.10
2019-06-08T14:00:38.178Z,18.20
2019-06-08T14:05:42.928Z,18.00
2019-06-08T14:10:48.531Z,18.00
2019-06-08T14:15:54.405Z,17.90
2019-06-08T14:21:00.023Z,17.90
2019-06-08T14:26:08.161Z,18.00
2019-06-08T14:31:13.095Z,18.10
2019-06-08T14:36:21.591Z,18.20
2019-06-08T14:41:28.858Z,18.00
2019-06-08T14:46:33.108Z,17.80
2019-06-08T14:51:48.936Z,17.80
2019-06-08T14:56:57.539Z,17.90
2019-06-08T15:02:02.588Z,18.10
2019-06-08T15:07:09.579Z,18.30
2019-06-08T15:12:17.690Z,18.40
2019-06-08T15:17:23.695Z,18.30
2019-06-08T15:22:31.442Z,18.30
2019-06-08T15:27:38.768Z,18.20
2019-06-08T15:32:44.149Z,18.20
2019-06-08T15:37:49.763Z,18.00
2019-06-08T15:42:55.326Z,18.00
2019-06-08T15:48:01.030Z,18.00
2019-06-08T15:53:08.295Z,17.80
2019-06-08T15:58:13.948Z,17.50
2019-06-08T16:03:19.651Z,17.30
2019-06-08T16:08:25.909Z,17.20
2019-06-08T16:13:32.967Z,17.20
2019-06-08T16:18:38.685Z,17.30
2019-06-08T16:23:44.473Z,17.50
2019-06-08T16:28:50.072Z,17.50
2019-06-08T16:33:55.705Z,17.60
2019-06-08T16:39:01.316Z,17.80
2019-06-08T16:44:07.432Z,17.90
2019-06-08T16:49:13.253Z,18.00
2019-06-08T16:54:19.004Z,18.10
2019-06-08T16:59:24.766Z,18.00
2019-06-08T17:04:31.182Z,18.00
2019-06-08T17:09:37.812Z,18.00
2019-06-08T17:14:43.947Z,17.80
2019-06-08T17:19:49.525Z,17.50
2019-06-08T17:24:55.445Z,17.30
2019-06-08T17:30:08.105Z,17.10
2019-06-08T17:35:08.449Z,17.00
2019-06-08T17:40:15.155Z,16.90
2019-06-08T17:45:21.005Z,16.90
2019-06-08T17:50:26.657Z,17.00
2019-06-08T17:55:33.133Z,17.00
2019-06-08T18:00:39.481Z,17.00
2019-06-08T18:05:48.192Z,17.00
2019-06-08T18:10:53.209Z,16.90
2019-06-08T18:15:58.901Z,16.90
2019-06-08T18:21:04.493Z,16.90
2019-06-08T18:26:10.121Z,16.90
2019-06-08T18:31:17.984Z,16.90
2019-06-08T18:36:22.873Z,16.90
2019-06-08T18:41:28.563Z,16.80
2019-06-08T18:46:34.964Z,16.70
2019-06-08T18:51:42.795Z,16.70
2019-06-08T18:56:48.903Z,16.70
2019-06-08T19:01:57.358Z,16.60
2019-06-08T19:07:03.250Z,16.60
2019-06-08T19:12:09.263Z,16.60
2019-06-08T19:17:17.340Z,16.50
2019-06-08T19:22:22.290Z,16.50
2019-06-08T19:27:28.094Z,16.50
2019-06-08T19:32:33.634Z,16.40
2019-06-08T19:37:39.692Z,16.40
2019-06-08T19:42:53.943Z,16.30
2019-06-08T19:47:52.604Z,16.20
2019-06-08T19:52:58.358Z,16.20
2019-06-08T19:58:03.991Z,16.10
2019-06-08T20:03:09.632Z,16.00
2019-06-08T20:08:18.679Z,15.90
2019-06-08T20:13:24.334Z,15.70
2019-06-08T20:18:29.983Z,15.70
2019-06-08T20:23:38.054Z,15.60
2019-06-08T20:28:44.368Z,15.50
2019-06-08T20:33:51.963Z,15.40
2019-06-08T20:38:58.460Z,15.40
2019-06-08T20:44:04.148Z,15.30
2019-06-08T20:49:09.814Z,15.30
2019-06-08T20:54:17.255Z,15.20
2019-06-08T20:59:29.942Z,15.10
2019-06-08T21:04:29.993Z,15.10
2019-06-08T21:09:37.102Z,15.00
2019-06-08T21:14:42.912Z,14.70
2019-06-08T21:19:48.809Z,14.70
2019-06-08T21:24:56.850Z,14.60
2019-06-08T21:30:07.008Z,14.50
2019-06-08T21:35:09.305Z,14.50
2019-06-08T21:40:17.441Z,14.40
2019-06-08T21:45:22.236Z,14.30
2019-06-08T21:50:27.816Z,14.30
2019-06-08T21:55:33.379Z,14.30
2019-06-08T22:00:43.173Z,14.30
2019-06-08T22:05:47.310Z,14.30
2019-06-08T22:10:54.280Z,14.30
2019-06-08T22:16:02.122Z,14.30
2019-06-08T22:21:08.546Z,14.40
2019-06-08T22:26:14.323Z,14.50
2019-06-08T22:31:23.071Z,14.40
2019-06-08T22:36:27.634Z,14.40
2019-06-08T22:41:33.474Z,14.40
2019-06-08T22:46:38.974Z,14.50
2019-06-08T22:51:44.702Z,14.40
2019-06-08T22:56:50.352Z,14.40
2019-06-08T23:01:58.353Z,14.50
2019-06-08T23:07:05.817Z,14.50
2019-06-08T23:12:10.550Z,14.50
2019-06-08T23:17:17.865Z,14.50
2019-06-08T23:22:23.591Z,14.50
2019-06-08T23:27:29.417Z,14.60
2019-06-08T23:32:35.103Z,14.60
2019-06-08T23:37:40.667Z,14.60
2019-06-08T23:42:47.671Z,14.40
2019-06-08T23:47:53.401Z,14.30
2019-06-08T23:52:59.633Z,14.50
2019-06-08T23:58:09.482Z,14.50
